Time;durP1;ratioP1;P1;durP2;ratioP2;P2;SDS_P1;SDS_P2;PMS_P1;PMS_P2;Temp;Humidity;BMP_temperature;BMP_pressure;BME280_temperature;BME280_humidity;BME280_pressure;Samples;Min_cycle;Max_cycle;Signal;HPM_P1;HPM_P2
2023/08/03 00:00:23;;;;;;;3.50;2.13;;;19.20;88.40;;;;;;5056262;28;20029;-79
2023/08/03 00:02:49;;;;;;;2.15;1.95;;;19.10;89.70;;;;;;5054295;28;20024;-80
2023/08/03 00:05:17;;;;;;;2.35;1.77;;;19.10;91.90;;;;;;5056070;28;20037;-79
2023/08/03 00:07:44;;;;;;;2.50;1.90;;;19.00;92.50;;;;;;5055704;28;20522;-79
2023/08/03 00:10:10;;;;;;;2.53;2.08;;;18.90;94.10;;;;;;5054823;28;20470;-81
2023/08/03 00:12:35;;;;;;;1.77;1.67;;;18.90;96.40;;;;;;5055805;28;20021;-79
2023/08/03 00:15:01;;;;;;;1.95;1.83;;;18.80;97.20;;;;;;5054624;28;20028;-78
2023/08/03 00:17:27;;;;;;;2.20;1.88;;;18.80;99.50;;;;;;5054595;28;20032;-79
2023/08/03 00:19:52;;;;;;;3.92;2.00;;;18.80;99.90;;;;;;5051080;28;20032;-79
2023/08/03 00:22:18;;;;;;;1.90;1.73;;;18.70;99.90;;;;;;5046453;28;20025;-80
2023/08/03 00:24:43;;;;;;;2.50;2.05;;;18.70;99.90;;;;;;5053073;28;20021;-79
2023/08/03 00:27:09;;;;;;;2.38;2.17;;;18.70;99.90;;;;;;5055794;28;20113;-79
2023/08/03 00:29:35;;;;;;;2.40;1.85;;;18.60;99.90;;;;;;5053346;28;20429;-79
2023/08/03 00:32:01;;;;;;;1.88;1.50;;;18.60;99.90;;;;;;5053486;28;20036;-79
2023/08/03 00:34:29;;;;;;;2.83;1.70;;;18.50;99.90;;;;;;5054026;28;20037;-79
2023/08/03 00:36:55;;;;;;;4.15;2.10;;;18.50;99.90;;;;;;5053571;28;20024;-79
2023/08/03 00:39:21;;;;;;;2.60;2.03;;;18.40;99.90;;;;;;5054089;28;20070;-80
2023/08/03 00:41:47;;;;;;;4.20;1.88;;;18.40;99.90;;;;;;5055381;28;20525;-80
2023/08/03 00:44:12;;;;;;;3.25;2.10;;;18.30;99.90;;;;;;5054355;28;20363;-79
2023/08/03 00:46:38;;;;;;;3.63;1.60;;;18.30;99.90;;;;;;5064289;28;20036;-81
2023/08/03 00:49:04;;;;;;;2.45;2.13;;;18.20;99.90;;;;;;5055868;28;20516;-79
2023/08/03 00:51:29;;;;;;;3.28;1.63;;;18.20;99.90;;;;;;5055201;28;20021;-79
2023/08/03 00:53:55;;;;;;;4.47;1.65;;;18.10;99.90;;;;;;5053776;28;20021;-79
2023/08/03 00:56:21;;;;;;;3.42;1.95;;;18.10;99.90;;;;;;5053774;28;20021;-80
2023/08/03 00:58:47;;;;;;;4.32;2.22;;;18.10;99.90;;;;;;5053787;28;20027;-80
2023/08/03 01:01:12;;;;;;;2.33;1.98;;;18.10;99.90;;;;;;5054723;28;20055;-79
2023/08/03 01:03:38;;;;;;;3.45;2.00;;;18.10;99.90;;;;;;5054726;28;20132;-80
2023/08/03 01:06:04;;;;;;;3.97;2.40;;;18.10;99.90;;;;;;5053593;28;20052;-80
2023/08/03 01:08:29;;;;;;;2.63;1.83;;;18.00;99.90;;;;;;5055023;28;20493;-79
2023/08/03 01:10:55;;;;;;;2.35;2.15;;;18.00;99.90;;;;;;5053543;28;20029;-79
2023/08/03 01:13:21;;;;;;;3.58;1.65;;;18.00;99.90;;;;;;5054806;28;20104;-80
2023/08/03 01:15:48;;;;;;;2.97;2.08;;;17.90;99.90;;;;;;5053454;28;20025;-80
2023/08/03 01:18:13;;;;;;;2.97;2.35;;;17.90;99.90;;;;;;5053426;28;20028;-80
2023/08/03 01:20:41;;;;;;;3.40;2.38;;;17.90;99.90;;;;;;5053067;28;20470;-79
2023/08/03 01:23:08;;;;;;;2.03;1.70;;;17.90;99.90;;;;;;5054670;28;20032;-80
2023/08/03 01:25:35;;;;;;;2.63;1.60;;;17.80;99.90;;;;;;5053079;28;20025;-80
2023/08/03 01:28:03;;;;;;;3.63;2.22;;;17.80;99.90;;;;;;5053323;28;20052;-80
2023/08/03 01:30:28;;;;;;;4.00;2.13;;;17.70;99.90;;;;;;5052665;28;20607;-81
2023/08/03 01:32:54;;;;;;;2.45;2.05;;;17.70;99.90;;;;;;5054510;28;20048;-79
2023/08/03 01:35:20;;;;;;;3.95;2.55;;;17.70;99.90;;;;;;5052952;28;20374;-79
2023/08/03 01:37:45;;;;;;;2.42;2.08;;;17.60;99.90;;;;;;5053100;28;20017;-79
2023/08/03 01:40:11;;;;;;;3.17;2.53;;;17.60;99.90;;;;;;5054336;28;20028;-80
2023/08/03 01:42:37;;;;;;;3.83;2.17;;;17.60;99.90;;;;;;5054184;28;20059;-78
2023/08/03 01:45:06;;;;;;;4.60;2.17;;;17.60;99.90;;;;;;5052890;28;20025;-78
2023/08/03 01:47:32;;;;;;;2.30;2.10;;;17.50;99.90;;;;;;5052774;28;20108;-80
2023/08/03 01:49:58;;;;;;;4.47;2.13;;;17.50;99.90;;;;;;5052833;28;20035;-80
2023/08/03 01:52:23;;;;;;;3.63;2.90;;;17.50;99.90;;;;;;5052409;28;20017;-81
2023/08/03 01:54:49;;;;;;;2.17;1.98;;;17.50;99.90;;;;;;5053192;28;20013;-80
2023/08/03 01:57:15;;;;;;;2.30;1.92;;;17.60;99.90;;;;;;5052561;28;20027;-80
2023/08/03 01:59:41;;;;;;;2.75;2.15;;;17.60;99.90;;;;;;5042051;28;20036;-80
2023/08/03 02:02:06;;;;;;;2.30;2.10;;;17.60;99.90;;;;;;5054095;28;20433;-78
2023/08/03 02:04:32;;;;;;;2.20;1.98;;;17.60;99.90;;;;;;5052358;28;20087;-78
2023/08/03 02:07:17;;;;;;;3.85;2.25;;;17.60;99.90;;;;;;5052663;28;20154;-78
2023/08/03 02:09:42;;;;;;;3.05;2.42;;;17.50;99.90;;;;;;5041405;28;20024;-81
2023/08/03 02:12:08;;;;;;;3.85;2.90;;;17.50;99.90;;;;;;5053538;28;20386;-80
2023/08/03 02:14:34;;;;;;;3.20;2.60;;;17.40;99.90;;;;;;5052508;28;20059;-77
2023/08/03 02:17:00;;;;;;;2.78;2.47;;;17.30;99.90;;;;;;5050766;28;20017;-80
2023/08/03 02:19:26;;;;;;;7.95;3.20;;;17.30;99.90;;;;;;5052229;28;20019;-78
2023/08/03 02:21:51;;;;;;;3.28;2.33;;;17.30;99.90;;;;;;5052169;28;20029;-78
2023/08/03 02:24:17;;;;;;;4.95;2.78;;;17.30;99.90;;;;;;5053619;28;20035;-80
2023/08/03 02:26:42;;;;;;;2.90;2.60;;;17.30;99.90;;;;;;5052054;28;20037;-79
2023/08/03 02:29:08;;;;;;;4.40;2.55;;;17.30;99.90;;;;;;5052127;28;20013;-79
2023/08/03 02:31:34;;;;;;;2.25;2.10;;;17.30;99.90;;;;;;5051853;28;20021;-79
2023/08/03 02:33:59;;;;;;;4.97;3.03;;;17.30;99.90;;;;;;5053272;28;20021;-80
2023/08/03 02:36:25;;;;;;;6.18;2.60;;;17.30;99.90;;;;;;5052880;28;20024;-81
2023/08/03 02:38:50;;;;;;;4.65;3.05;;;17.20;99.90;;;;;;5052011;28;20049;-81
2023/08/03 02:41:16;;;;;;;3.00;2.67;;;17.20;99.90;;;;;;5051571;28;20103;-81
2023/08/03 02:43:42;;;;;;;4.07;2.70;;;17.20;99.90;;;;;;5053280;28;20017;-81
2023/08/03 02:46:08;;;;;;;5.65;2.55;;;17.20;99.90;;;;;;5051320;28;20114;-80
2023/08/03 02:48:33;;;;;;;2.50;1.85;;;17.20;99.90;;;;;;5051894;28;20033;-80
2023/08/03 02:50:59;;;;;;;5.05;3.15;;;17.10;99.90;;;;;;5052685;28;20029;-79
2023/08/03 02:53:24;;;;;;;3.80;3.28;;;17.10;99.90;;;;;;5052924;28;20024;-79
2023/08/03 02:55:51;;;;;;;2.53;2.33;;;17.00;99.90;;;;;;5052952;28;20021;-79
2023/08/03 02:58:17;;;;;;;3.30;2.38;;;17.00;99.90;;;;;;5038450;28;20112;-79
2023/08/03 03:00:42;;;;;;;2.80;2.50;;;17.00;99.90;;;;;;5052822;28;20096;-80
2023/08/03 03:03:08;;;;;;;5.40;3.10;;;17.00;99.90;;;;;;5051398;28;20045;-80
2023/08/03 03:05:34;;;;;;;3.15;2.95;;;17.00;99.90;;;;;;5052593;28;20036;-81
2023/08/03 03:07:59;;;;;;;3.88;2.78;;;17.00;99.90;;;;;;5052173;28;20470;-81
2023/08/03 03:10:25;;;;;;;3.33;2.53;;;17.00;99.90;;;;;;5052539;28;20382;-80
2023/08/03 03:12:51;;;;;;;4.32;3.22;;;17.10;99.90;;;;;;5052737;28;20017;-80
2023/08/03 03:15:16;;;;;;;3.53;3.20;;;17.10;99.90;;;;;;5051490;28;20017;-81
2023/08/03 03:17:42;;;;;;;4.00;3.00;;;17.10;99.90;;;;;;5051370;28;20429;-79
2023/08/03 03:20:09;;;;;;;2.88;2.67;;;17.10;99.90;;;;;;5052564;28;20513;-81
2023/08/03 03:22:35;;;;;;;3.85;3.05;;;17.10;99.90;;;;;;5051224;28;20040;-79
2023/08/03 03:25:02;;;;;;;6.82;2.88;;;17.10;99.90;;;;;;5050558;28;20021;-80
2023/08/03 03:27:28;;;;;;;4.00;2.58;;;17.20;99.90;;;;;;5052707;28;20025;-79
2023/08/03 03:29:53;;;;;;;3.40;3.08;;;17.10;99.90;;;;;;5051145;28;20084;-80
2023/08/03 03:32:19;;;;;;;4.03;3.35;;;17.10;99.90;;;;;;5052576;28;20021;-79
2023/08/03 03:34:45;;;;;;;5.32;3.10;;;17.10;99.90;;;;;;5052133;28;20501;-79
2023/08/03 03:37:10;;;;;;;7.03;3.60;;;17.20;99.90;;;;;;5039503;28;20383;-79
2023/08/03 03:39:36;;;;;;;3.72;2.88;;;17.20;99.90;;;;;;5051034;28;20018;-78
2023/08/03 03:42:02;;;;;;;5.35;3.03;;;17.30;99.90;;;;;;5046334;28;20029;-79
2023/08/03 03:44:27;;;;;;;4.10;3.13;;;17.30;99.90;;;;;;5045652;28;20036;-79
2023/08/03 03:46:53;;;;;;;4.93;3.45;;;17.30;99.90;;;;;;5052073;28;20033;-79
2023/08/03 03:49:18;;;;;;;3.90;2.90;;;17.30;99.90;;;;;;5052412;28;20025;-78
2023/08/03 03:51:44;;;;;;;5.70;3.00;;;17.30;99.90;;;;;;5052104;28;20454;-80
2023/08/03 03:54:10;;;;;;;5.55;3.05;;;17.30;99.90;;;;;;5052399;28;20108;-79
2023/08/03 03:56:35;;;;;;;4.85;3.88;;;17.20;99.90;;;;;;5052183;28;20021;-79
2023/08/03 03:59:01;;;;;;;4.75;3.63;;;17.20;99.90;;;;;;5051033;28;20103;-77
2023/08/03 04:01:27;;;;;;;4.97;3.35;;;17.10;99.90;;;;;;5050942;28;20031;-78
2023/08/03 04:03:52;;;;;;;5.68;3.30;;;17.10;99.90;;;;;;5052079;28;20063;-79
2023/08/03 04:06:18;;;;;;;3.92;3.25;;;17.10;99.90;;;;;;5045835;28;20083;-79
2023/08/03 04:08:43;;;;;;;4.75;3.10;;;17.10;99.90;;;;;;5043907;28;20028;-78
2023/08/03 04:11:09;;;;;;;4.90;3.35;;;17.10;99.90;;;;;;5050640;28;20028;-77
2023/08/03 04:13:35;;;;;;;4.28;3.83;;;17.10;99.90;;;;;;5050784;28;20044;-78
2023/08/03 04:16:00;;;;;;;6.50;3.95;;;17.20;99.90;;;;;;5049581;28;20048;-77
2023/08/03 04:18:27;;;;;;;5.55;3.45;;;17.20;99.90;;;;;;5039494;28;20378;-79
2023/08/03 04:20:53;;;;;;;3.97;3.60;;;17.20;99.90;;;;;;5045090;28;20449;-79
2023/08/03 04:23:19;;;;;;;8.82;4.00;;;17.20;99.90;;;;;;5037190;28;20025;-79
2023/08/03 04:25:44;;;;;;;8.15;4.00;;;17.20;99.90;;;;;;5038901;28;20028;-80
2023/08/03 04:28:10;;;;;;;4.63;4.15;;;17.30;99.90;;;;;;5036661;28;20386;-78
2023/08/03 04:30:36;;;;;;;5.20;4.10;;;17.30;99.90;;;;;;5053709;28;20425;-78
2023/08/03 04:33:01;;;;;;;5.25;3.67;;;17.30;99.90;;;;;;5054158;28;20017;-78
2023/08/03 04:35:27;;;;;;;5.30;3.75;;;17.30;99.90;;;;;;5053529;28;20500;-80
2023/08/03 04:37:52;;;;;;;4.53;3.70;;;17.40;99.90;;;;;;5053681;28;20028;-79
2023/08/03 04:40:18;;;;;;;4.05;3.58;;;17.40;99.90;;;;;;5053367;28;20090;-79
2023/08/03 04:42:44;;;;;;;3.53;3.17;;;17.50;99.90;;;;;;5054421;28;20470;-77
2023/08/03 04:45:09;;;;;;;4.72;3.47;;;17.50;99.90;;;;;;5054669;28;20057;-77
2023/08/03 04:47:35;;;;;;;5.43;4.00;;;17.50;99.90;;;;;;5053496;28;20086;-78
2023/08/03 04:50:01;;;;;;;3.88;2.83;;;17.50;99.90;;;;;;5041928;28;20059;-77
2023/08/03 04:52:26;;;;;;;3.88;3.03;;;17.60;99.90;;;;;;5042640;28;20104;-79
2023/08/03 04:54:52;;;;;;;6.03;2.90;;;17.60;99.90;;;;;;5040002;28;20459;-79
2023/08/03 04:57:17;;;;;;;4.55;3.33;;;17.60;99.90;;;;;;5038529;28;20038;-79
2023/08/03 04:59:43;;;;;;;3.58;2.75;;;17.60;99.90;;;;;;5052042;28;20131;-79
2023/08/03 05:02:08;;;;;;;4.18;2.85;;;17.60;99.90;;;;;;5047444;28;20025;-77
2023/08/03 05:04:34;;;;;;;4.28;3.35;;;17.60;99.90;;;;;;5050083;28;20124;-77
2023/08/03 05:07:00;;;;;;;5.82;4.15;;;17.50;99.90;;;;;;5042951;28;20052;-80
2023/08/03 05:09:26;;;;;;;7.35;4.30;;;17.60;99.90;;;;;;5044923;28;20431;-78
2023/08/03 05:11:51;;;;;;;8.20;5.47;;;17.60;99.90;;;;;;5038219;28;20060;-78
2023/08/03 05:14:17;;;;;;;7.95;4.93;;;17.70;99.90;;;;;;5045156;28;20067;-79
2023/08/03 05:16:42;;;;;;;9.45;4.72;;;17.70;99.90;;;;;;5046354;28;20057;-78
2023/08/03 05:19:08;;;;;;;6.72;4.57;;;17.80;99.90;;;;;;5041412;28;20100;-80
2023/08/03 05:21:34;;;;;;;7.78;4.90;;;17.80;99.90;;;;;;5045902;28;20068;-80
2023/08/03 05:23:59;;;;;;;7.07;4.55;;;17.90;99.90;;;;;;5054095;28;20025;-80
2023/08/03 05:26:26;;;;;;;9.40;5.18;;;18.00;99.90;;;;;;5053076;28;20025;-78
2023/08/03 05:28:52;;;;;;;10.02;5.28;;;18.00;99.90;;;;;;5039322;28;20028;-79
2023/08/03 05:31:17;;;;;;;7.97;4.97;;;18.00;99.90;;;;;;5046064;28;20017;-79
2023/08/03 05:33:43;;;;;;;9.07;4.63;;;18.00;99.90;;;;;;5045087;28;20044;-80
2023/08/03 05:36:09;;;;;;;7.93;5.00;;;18.00;99.90;;;;;;5045381;28;20021;-81
2023/08/03 05:38:35;;;;;;;5.43;4.55;;;18.00;99.90;;;;;;5051326;28;20441;-80
2023/08/03 05:41:01;;;;;;;5.65;3.65;;;18.00;99.90;;;;;;5046964;28;20044;-81
2023/08/03 05:43:28;;;;;;;7.30;3.85;;;17.90;99.90;;;;;;5050540;28;20066;-80
2023/08/03 05:46:01;;;;;;;4.55;3.88;;;17.90;99.90;;;;;;5047405;28;20182;-81
2023/08/03 05:48:29;;;;;;;4.45;3.30;;;17.90;99.90;;;;;;5028739;28;20025;-81
2023/08/03 05:50:56;;;;;;;4.70;3.63;;;17.80;99.90;;;;;;5046128;28;20040;-80
2023/08/03 05:53:22;;;;;;;4.38;3.97;;;17.70;99.90;;;;;;5051211;28;20530;-80
2023/08/03 05:55:48;;;;;;;4.50;3.55;;;17.60;99.90;;;;;;5038535;28;20046;-81
2023/08/03 05:58:15;;;;;;;7.70;3.17;;;17.50;99.90;;;;;;5051360;28;20083;-81
2023/08/03 06:00:42;;;;;;;9.85;2.83;;;17.40;99.90;;;;;;5040446;28;20100;-81
2023/08/03 06:03:13;;;;;;;4.30;3.35;;;17.40;99.90;;;;;;5050662;28;20049;-81
2023/08/03 06:05:38;;;;;;;4.22;3.05;;;17.40;99.90;;;;;;5040990;28;20076;-81
2023/08/03 06:08:13;;;;;;;4.47;3.08;;;17.40;99.90;;;;;;5035581;28;20495;-80
2023/08/03 06:10:39;;;;;;;6.07;3.50;;;17.50;99.90;;;;;;5050827;28;20029;-80
2023/08/03 06:13:07;;;;;;;4.63;3.53;;;17.50;99.90;;;;;;5047561;28;20033;-79
2023/08/03 06:15:33;;;;;;;6.05;3.90;;;17.60;99.90;;;;;;5049900;28;20025;-80
2023/08/03 06:18:03;;;;;;;6.22;4.00;;;17.60;99.90;;;;;;5034857;28;20394;-79
2023/08/03 06:20:28;;;;;;;6.43;4.40;;;17.70;99.90;;;;;;5037794;28;20029;-79
2023/08/03 06:22:54;;;;;;;5.13;4.15;;;17.80;99.90;;;;;;5034325;28;20021;-78
2023/08/03 06:25:21;;;;;;;5.15;4.53;;;17.80;99.90;;;;;;5037734;28;20067;-81
2023/08/03 06:27:48;;;;;;;4.88;4.30;;;17.80;99.90;;;;;;5049590;28;20056;-81
2023/08/03 06:30:14;;;;;;;6.50;4.25;;;17.90;99.90;;;;;;5050228;28;20045;-81
2023/08/03 06:32:41;;;;;;;7.70;4.38;;;17.90;99.90;;;;;;5038840;28;20025;-80
2023/08/03 06:35:26;;;;;;;5.32;4.22;;;17.90;99.90;;;;;;5047156;28;20033;-81
2023/08/03 06:37:53;;;;;;;7.15;4.50;;;18.00;99.90;;;;;;5044823;28;20056;-79
2023/08/03 06:40:19;;;;;;;5.35;4.22;;;18.00;99.90;;;;;;5046601;28;20033;-79
2023/08/03 06:42:45;;;;;;;5.22;3.78;;;18.00;99.90;;;;;;5044022;28;20052;-80
2023/08/03 06:45:11;;;;;;;5.95;3.80;;;18.00;99.90;;;;;;5049635;28;20466;-79
2023/08/03 06:47:36;;;;;;;5.20;4.20;;;18.00;99.90;;;;;;5047664;28;20399;-79
2023/08/03 06:50:03;;;;;;;5.85;4.30;;;18.10;99.90;;;;;;5051780;28;20025;-80
2023/08/03 06:52:29;;;;;;;5.30;4.28;;;18.10;99.90;;;;;;5056582;28;20029;-80
2023/08/03 06:54:55;;;;;;;5.13;4.63;;;18.10;99.90;;;;;;5050792;28;20047;-80
2023/08/03 06:57:20;;;;;;;4.45;4.05;;;18.10;99.90;;;;;;5051892;28;20112;-79
2023/08/03 06:59:46;;;;;;;4.47;4.07;;;18.20;99.90;;;;;;5040699;28;20036;-80
2023/08/03 07:02:12;;;;;;;6.32;4.68;;;18.20;99.90;;;;;;5043405;28;20060;-81
2023/08/03 07:04:37;;;;;;;4.63;4.18;;;18.30;99.90;;;;;;5045869;28;20120;-78
2023/08/03 07:07:03;;;;;;;6.07;4.50;;;18.40;99.90;;;;;;5051066;28;20032;-79
2023/08/03 07:09:28;;;;;;;7.75;4.88;;;18.40;99.90;;;;;;5051065;28;20020;-79
2023/08/03 07:11:54;;;;;;;6.90;4.35;;;18.40;99.90;;;;;;5051671;28;20017;-79
2023/08/03 07:14:20;;;;;;;9.18;4.70;;;18.30;99.90;;;;;;5051296;28;20024;-79
2023/08/03 07:16:46;;;;;;;4.78;4.05;;;18.30;99.90;;;;;;5051413;28;20025;-79
2023/08/03 07:19:13;;;;;;;6.05;4.55;;;18.30;99.90;;;;;;5050743;28;20450;-79
2023/08/03 07:21:38;;;;;;;4.40;3.55;;;18.30;99.90;;;;;;5049313;28;20031;-80
2023/08/03 07:24:05;;;;;;;5.22;4.05;;;18.20;99.90;;;;;;5047568;28;20108;-79
2023/08/03 07:26:30;;;;;;;6.97;3.90;;;18.10;99.90;;;;;;5047535;28;20657;-79
2023/08/03 07:28:57;;;;;;;4.72;4.00;;;18.10;99.90;;;;;;5046422;28;20071;-79
2023/08/03 07:31:24;;;;;;;4.97;4.07;;;18.10;99.90;;;;;;5047887;28;20036;-79
2023/08/03 07:33:49;;;;;;;4.80;3.65;;;18.10;99.90;;;;;;5047884;28;20048;-80
2023/08/03 07:36:17;;;;;;;5.88;3.63;;;18.10;99.90;;;;;;5051320;28;20045;-79
2023/08/03 07:38:43;;;;;;;5.88;3.58;;;18.10;99.90;;;;;;5052470;28;20092;-79
2023/08/03 07:41:08;;;;;;;3.95;3.60;;;18.00;99.90;;;;;;5051287;28;20117;-79
2023/08/03 07:43:34;;;;;;;6.25;3.72;;;18.00;99.90;;;;;;5051845;28;20017;-80
2023/08/03 07:46:02;;;;;;;6.43;3.80;;;18.00;99.90;;;;;;5051207;28;20033;-79
2023/08/03 07:48:27;;;;;;;4.03;3.42;;;18.10;99.90;;;;;;5052248;28;20071;-78
2023/08/03 07:50:53;;;;;;;3.80;2.95;;;18.10;99.90;;;;;;5052610;28;20028;-81
2023/08/03 07:53:19;;;;;;;8.13;3.80;;;18.20;99.90;;;;;;5051075;28;20028;-79
2023/08/03 07:55:44;;;;;;;11.55;4.22;;;18.30;99.90;;;;;;5056134;28;20470;-79
2023/08/03 07:58:11;;;;;;;4.70;3.58;;;18.40;99.90;;;;;;5056264;28;20083;-79
2023/08/03 08:00:37;;;;;;;4.53;3.80;;;18.40;99.90;;;;;;5056371;28;20036;-80
2023/08/03 08:03:03;;;;;;;8.57;4.15;;;18.50;99.90;;;;;;5054732;28;20486;-79
2023/08/03 08:05:28;;;;;;;5.95;4.45;;;18.50;99.90;;;;;;5055021;28;20036;-79
2023/08/03 08:07:55;;;;;;;4.47;3.40;;;18.60;99.90;;;;;;5054651;28;20025;-80
2023/08/03 08:10:20;;;;;;;5.20;3.72;;;18.60;99.90;;;;;;5056240;28;20025;-79
2023/08/03 08:12:46;;;;;;;4.93;3.30;;;18.50;99.90;;;;;;5054651;28;20370;-81
2023/08/03 08:15:12;;;;;;;4.85;3.38;;;18.60;99.90;;;;;;5056270;28;20025;-79
2023/08/03 08:17:37;;;;;;;3.22;2.85;;;18.50;99.90;;;;;;5055532;28;20075;-79
2023/08/03 08:20:03;;;;;;;3.97;3.08;;;18.50;99.90;;;;;;5056052;28;20470;-80
2023/08/03 08:22:29;;;;;;;5.90;3.38;;;18.40;99.90;;;;;;5055776;28;20067;-80
2023/08/03 08:24:54;;;;;;;3.40;3.10;;;18.50;99.90;;;;;;5056006;28;20028;-80
2023/08/03 08:27:20;;;;;;;4.38;2.92;;;18.40;99.90;;;;;;5055468;28;20474;-80
2023/08/03 08:29:47;;;;;;;5.72;3.05;;;18.40;99.90;;;;;;5054078;28;20500;-79
2023/08/03 08:32:12;;;;;;;3.15;2.85;;;18.30;99.90;;;;;;5055518;28;20021;-80
2023/08/03 08:34:38;;;;;;;3.97;3.13;;;18.20;99.90;;;;;;5054367;28;20206;-79
2023/08/03 08:37:05;;;;;;;5.35;2.67;;;18.20;99.90;;;;;;5054305;28;20541;-80
2023/08/03 08:39:30;;;;;;;3.58;2.70;;;18.20;99.90;;;;;;5054281;28;20017;-79
2023/08/03 08:41:56;;;;;;;6.38;3.35;;;18.10;99.90;;;;;;5055464;28;20078;-79
2023/08/03 08:44:22;;;;;;;4.53;3.70;;;18.10;99.90;;;;;;5054221;28;20505;-80
2023/08/03 08:46:48;;;;;;;6.25;3.90;;;18.20;99.90;;;;;;5055225;28;20041;-80
2023/08/03 08:49:14;;;;;;;7.20;3.72;;;18.20;99.90;;;;;;5042171;28;20057;-79
2023/08/03 08:51:44;;;;;;;7.82;4.03;;;18.20;99.90;;;;;;5054223;28;20053;-79
2023/08/03 08:54:09;;;;;;;5.70;4.10;;;18.30;99.90;;;;;;5054239;28;20024;-80
2023/08/03 08:56:35;;;;;;;8.15;3.92;;;18.40;99.90;;;;;;5054972;28;20379;-80
2023/08/03 08:59:02;;;;;;;7.47;4.85;;;18.40;99.90;;;;;;5053919;28;20106;-79
2023/08/03 09:01:46;;;;;;;6.28;4.10;;;18.40;99.90;;;;;;5053592;28;20025;-81
2023/08/03 09:04:12;;;;;;;6.68;4.28;;;18.40;99.90;;;;;;5054916;28;20045;-81
2023/08/03 09:06:43;;;;;;;10.23;5.13;;;18.50;99.90;;;;;;5052763;28;20037;-81
2023/08/03 09:09:09;;;;;;;7.22;4.13;;;18.50;99.90;;;;;;5054962;28;20104;-81
2023/08/03 09:11:37;;;;;;;6.05;3.83;;;18.50;99.90;;;;;;5054974;28;20474;-79
2023/08/03 09:14:05;;;;;;;4.13;3.40;;;18.50;99.90;;;;;;5054623;28;20074;-81
2023/08/03 09:16:31;;;;;;;8.30;4.55;;;18.50;99.90;;;;;;5053709;28;20119;-80
2023/08/03 09:18:57;;;;;;;14.55;4.43;;;18.50;99.90;;;;;;5053288;28;20032;-81
2023/08/03 09:21:23;;;;;;;11.02;5.05;;;18.50;99.90;;;;;;5053716;28;20479;-81
2023/08/03 09:23:48;;;;;;;9.88;4.95;;;18.60;99.90;;;;;;5053322;28;20014;-81
2023/08/03 09:26:21;;;;;;;6.72;3.60;;;18.70;99.90;;;;;;5053566;28;20577;-81
2023/08/03 09:28:47;;;;;;;3.85;3.08;;;18.80;99.90;;;;;;5052234;28;20010;-80
2023/08/03 09:31:23;;;;;;;5.15;3.70;;;18.80;99.90;;;;;;5053409;28;20028;-81
2023/08/03 09:33:59;;;;;;;5.03;2.88;;;18.90;99.90;;;;;;5054289;28;20020;-81
2023/08/03 09:36:28;;;;;;;5.63;3.17;;;19.00;99.90;;;;;;5053120;28;20398;-81
2023/08/03 09:39:14;;;;;;;4.10;2.80;;;19.10;99.90;;;;;;5053128;28;20463;-80
2023/08/03 09:41:40;;;;;;;3.80;2.58;;;19.20;99.90;;;;;;5052322;28;20085;-80
2023/08/03 09:44:07;;;;;;;6.10;2.95;;;19.20;99.90;;;;;;5053180;28;20033;-80
2023/08/03 09:46:34;;;;;;;2.85;2.45;;;19.20;99.90;;;;;;5054140;28;20065;-81
2023/08/03 09:49:00;;;;;;;6.40;2.83;;;19.30;99.90;;;;;;5053255;28;20025;-80
2023/08/03 09:51:30;;;;;;;3.50;2.40;;;19.20;99.90;;;;;;5054145;28;20455;-81
2023/08/03 09:54:07;;;;;;;2.33;2.13;;;19.10;99.90;;;;;;5052914;28;20025;-79
2023/08/03 09:56:37;;;;;;;4.90;2.38;;;19.00;99.90;;;;;;5053972;28;20130;-81
2023/08/03 09:59:08;;;;;;;3.45;2.33;;;18.90;99.90;;;;;;5052833;28;20025;-80
2023/08/03 10:01:36;;;;;;;4.00;2.60;;;18.90;99.90;;;;;;5054143;28;20024;-80
2023/08/03 10:04:04;;;;;;;6.82;3.28;;;18.90;99.90;;;;;;5053822;28;20133;-80
2023/08/03 10:06:36;;;;;;;3.60;2.55;;;18.90;99.90;;;;;;5052646;28;20518;-79
2023/08/03 10:09:06;;;;;;;3.00;2.40;;;18.80;99.90;;;;;;5052552;28;20111;-81
2023/08/03 10:11:38;;;;;;;3.55;2.50;;;18.70;99.90;;;;;;5054224;28;20095;-80
2023/08/03 10:14:05;;;;;;;4.40;3.35;;;18.50;99.90;;;;;;5052559;28;20025;-81
2023/08/03 10:16:35;;;;;;;4.30;2.58;;;18.50;99.90;;;;;;5053755;28;20017;-81
2023/08/03 10:19:02;;;;;;;7.32;2.38;;;18.40;99.90;;;;;;5052330;28;20074;-81
2023/08/03 10:21:29;;;;;;;4.05;2.60;;;18.40;99.90;;;;;;5041162;28;20036;-80
2023/08/03 10:24:20;;;;;;;4.03;2.35;;;18.40;99.90;;;;;;5050208;28;20021;-81
2023/08/03 10:26:51;;;;;;;3.80;2.35;;;18.40;99.90;;;;;;5046105;28;20037;-82
2023/08/03 10:29:49;;;;;;;2.97;2.58;;;18.50;99.90;;;;;;5051017;28;20056;-82
2023/08/03 10:32:22;;;;;;;3.22;2.60;;;18.60;99.90;;;;;;5053266;28;20017;-82
2023/08/03 10:34:48;;;;;;;2.97;2.42;;;18.60;99.90;;;;;;5053255;28;20029;-80
2023/08/03 10:37:14;;;;;;;2.95;2.58;;;18.60;99.90;;;;;;5053474;28;20021;-82
2023/08/03 10:39:51;;;;;;;3.40;2.78;;;18.60;99.90;;;;;;5052920;28;20466;-80
2023/08/03 10:42:23;;;;;;;4.15;2.55;;;18.60;99.90;;;;;;5052305;28;20429;-82
2023/08/03 10:44:49;;;;;;;3.63;2.47;;;18.70;99.90;;;;;;5052083;28;20695;-81
2023/08/03 10:47:29;;;;;;;2.83;2.45;;;18.60;99.90;;;;;;5051937;28;20075;-82
2023/08/03 10:49:56;;;;;;;3.35;2.58;;;18.70;99.90;;;;;;5051768;28;20025;-81
2023/08/03 10:52:28;;;;;;;4.22;2.67;;;18.70;99.90;;;;;;5053316;28;20386;-81
2023/08/03 10:54:55;;;;;;;3.00;2.28;;;18.60;99.90;;;;;;5053065;28;20386;-83
2023/08/03 10:57:24;;;;;;;4.25;2.60;;;18.50;99.90;;;;;;5051615;28;20033;-82
2023/08/03 10:59:55;;;;;;;3.72;2.50;;;18.30;99.90;;;;;;5051437;28;20021;-80
2023/08/03 11:02:25;;;;;;;3.95;2.20;;;18.30;99.90;;;;;;5052875;28;20029;-81
2023/08/03 11:04:52;;;;;;;2.97;2.15;;;18.20;99.90;;;;;;5052888;28;20114;-82
2023/08/03 11:07:38;;;;;;;5.07;2.30;;;18.10;99.90;;;;;;5052006;28;20044;-81
2023/08/03 11:10:07;;;;;;;6.25;3.10;;;18.10;99.90;;;;;;5051936;28;20064;-82
2023/08/03 11:12:34;;;;;;;5.10;2.42;;;18.10;99.90;;;;;;5052633;28;20019;-82
2023/08/03 11:15:01;;;;;;;2.75;2.28;;;18.10;99.90;;;;;;5051544;28;20074;-82
2023/08/03 11:17:29;;;;;;;2.75;1.95;;;18.10;99.90;;;;;;5052830;28;20017;-82
2023/08/03 11:19:56;;;;;;;2.35;2.00;;;18.10;99.90;;;;;;5051555;28;20043;-83
2023/08/03 11:22:23;;;;;;;2.75;2.55;;;18.20;99.90;;;;;;5051413;28;20029;-81
2023/08/03 11:24:56;;;;;;;3.17;2.17;;;18.20;99.90;;;;;;5051446;28;20461;-82
2023/08/03 11:27:23;;;;;;;3.33;2.13;;;18.30;99.90;;;;;;5050991;28;20024;-81
2023/08/03 11:29:51;;;;;;;2.28;1.65;;;18.30;99.90;;;;;;5049705;28;20035;-82
2023/08/03 11:32:22;;;;;;;3.50;1.88;;;18.30;99.90;;;;;;5037539;28;20055;-81
2023/08/03 11:34:47;;;;;;;2.45;2.20;;;18.30;99.90;;;;;;5052089;28;20462;-82
2023/08/03 11:37:13;;;;;;;4.20;1.90;;;18.20;99.90;;;;;;5052587;28;20025;-81
2023/08/03 11:39:39;;;;;;;4.97;2.00;;;18.30;99.90;;;;;;5052463;28;20032;-82
2023/08/03 11:42:07;;;;;;;4.18;1.95;;;18.30;99.90;;;;;;5065098;28;20475;-82
2023/08/03 11:44:39;;;;;;;5.22;2.20;;;18.40;99.90;;;;;;5044978;28;20417;-82
2023/08/03 11:47:07;;;;;;;5.18;2.35;;;18.40;99.90;;;;;;5039470;28;20043;-81
2023/08/03 11:49:33;;;;;;;6.38;1.95;;;18.50;99.90;;;;;;5050576;28;20021;-81
2023/08/03 11:52:00;;;;;;;3.42;2.28;;;18.70;99.90;;;;;;5052442;28;20025;-83
2023/08/03 11:54:29;;;;;;;5.28;2.05;;;18.70;99.90;;;;;;5052154;28;20078;-80
2023/08/03 11:58:07;;;;;;;3.42;2.75;;;18.80;99.90;;;;;;5052545;28;20044;-82
2023/08/03 11:59:42;;;;;;;2.92;2.28;;;18.90;99.90;;;;;;5052570;28;20449;-82
2023/08/03 12:02:08;;;;;;;4.10;2.55;;;18.90;99.90;;;;;;5052371;28;20033;-81
2023/08/03 12:04:33;;;;;;;6.22;2.72;;;19.00;99.90;;;;;;5050880;28;20044;-82
2023/08/03 12:07:01;;;;;;;4.78;2.55;;;19.20;99.90;;;;;;5052240;28;20029;-82
2023/08/03 12:09:29;;;;;;;5.82;2.85;;;19.40;99.90;;;;;;5051851;28;20029;-80
2023/08/03 12:12:11;;;;;;;5.38;2.67;;;19.40;99.90;;;;;;5052538;28;20029;-81
2023/08/03 12:14:36;;;;;;;4.07;2.78;;;19.60;99.90;;;;;;5052529;28;20475;-80
2023/08/03 12:17:02;;;;;;;4.18;2.97;;;19.70;99.90;;;;;;5050970;28;20028;-80
2023/08/03 12:19:32;;;;;;;4.53;2.50;;;19.80;99.90;;;;;;5043720;28;20021;-81
2023/08/03 12:22:02;;;;;;;6.57;3.03;;;19.80;99.90;;;;;;5047159;28;20386;-80
2023/08/03 12:24:29;;;;;;;3.05;2.53;;;19.80;99.90;;;;;;5050959;28;20032;-80
2023/08/03 12:26:55;;;;;;;5.35;2.72;;;19.80;99.90;;;;;;5050768;28;20463;-79
2023/08/03 12:29:21;;;;;;;5.93;2.83;;;19.80;99.90;;;;;;5051131;28;20055;-80
2023/08/03 12:31:47;;;;;;;4.78;2.60;;;19.80;99.90;;;;;;5051818;28;20433;-79
2023/08/03 12:34:13;;;;;;;4.97;2.83;;;19.70;99.90;;;;;;5051869;28;20021;-80
2023/08/03 12:36:39;;;;;;;5.00;2.42;;;19.70;99.90;;;;;;5051927;28;20033;-80
2023/08/03 12:39:07;;;;;;;2.90;2.40;;;19.70;99.90;;;;;;5051979;28;20101;-79
2023/08/03 12:41:33;;;;;;;6.95;2.42;;;19.50;99.90;;;;;;5053413;28;20039;-79
2023/08/03 12:43:59;;;;;;;7.60;2.75;;;19.60;99.90;;;;;;5055625;28;20456;-81